createdAt,value
2022-12-25T00:01:25.574Z,11.77
2022-12-25T00:03:53.915Z,11.15
2022-12-25T00:06:22.266Z,10.67
2022-12-25T00:08:50.194Z,10.63
2022-12-25T00:11:20.230Z,11.25
2022-12-25T00:13:48.952Z,11.63
2022-12-25T00:16:26.366Z,12.13
2022-12-25T00:18:56.551Z,11.73
2022-12-25T00:21:29.780Z,10.88
2022-12-25T00:24:15.337Z,12.73
2022-12-25T00:26:51.104Z,11.65
2022-12-25T00:29:19.402Z,12.20
2022-12-25T00:31:47.806Z,12.13
2022-12-25T00:34:15.969Z,12.20
2022-12-25T00:36:44.193Z,11.75
2022-12-25T00:39:12.086Z,11.30
2022-12-25T00:41:58.586Z,11.93
2022-12-25T00:44:26.780Z,12.17
2022-12-25T00:46:55.041Z,11.63
2022-12-25T00:49:24.173Z,12.77
2022-12-25T00:51:53.389Z,12.48
2022-12-25T00:54:22.374Z,12.43
2022-12-25T00:56:50.672Z,12.43
2022-12-25T00:59:18.957Z,11.65
2022-12-25T01:01:47.428Z,12.95
2022-12-25T01:04:15.719Z,11.45
2022-12-25T01:06:43.864Z,12.57
2022-12-25T01:09:30.525Z,11.50
2022-12-25T01:11:58.967Z,11.63
2022-12-25T01:14:26.781Z,12.07
2022-12-25T01:16:55.205Z,12.18
2022-12-25T01:19:23.294Z,11.57
2022-12-25T01:21:51.578Z,11.07
2022-12-25T01:24:19.351Z,12.20
2022-12-25T01:26:47.654Z,12.32
2022-12-25T01:29:15.579Z,12.07
2022-12-25T01:31:43.859Z,11.68
2022-12-25T01:34:11.748Z,11.07
2022-12-25T01:36:39.882Z,11.77
2022-12-25T01:39:07.862Z,12.05
2022-12-25T01:41:36.103Z,11.07
2022-12-25T01:44:16.284Z,11.63
2022-12-25T01:46:45.000Z,10.73
2022-12-25T01:49:21.699Z,11.25
2022-12-25T01:52:24.599Z,11.18
2022-12-25T01:54:58.336Z,13.55
2022-12-25T01:57:31.281Z,11.35
2022-12-25T02:00:01.223Z,10.17
2022-12-25T02:02:30.085Z,11.18
2022-12-25T02:05:06.053Z,11.50
2022-12-25T02:07:36.098Z,12.90
2022-12-25T02:10:04.128Z,11.80
2022-12-25T02:12:34.718Z,12.97
2022-12-25T02:15:06.669Z,11.50
2022-12-25T02:17:50.939Z,11.90
2022-12-25T02:20:53.546Z,11.63
2022-12-25T02:23:49.407Z,11.38
2022-12-25T02:26:38.675Z,12.20
2022-12-25T02:29:33.611Z,11.52
2022-12-25T02:32:24.978Z,12.52
2022-12-25T02:35:00.069Z,11.98
2022-12-25T02:37:43.978Z,11.98
2022-12-25T02:40:24.370Z,11.80
2022-12-25T02:43:17.053Z,12.93
2022-12-25T02:46:16.049Z,12.65
2022-12-25T02:49:14.452Z,11.77
2022-12-25T02:52:07.079Z,12.10
2022-12-25T02:54:57.054Z,11.53
2022-12-25T02:57:53.868Z,11.98
2022-12-25T03:00:40.742Z,11.38
2022-12-25T03:03:29.559Z,10.98
2022-12-25T03:06:20.709Z,11.63
2022-12-25T03:08:54.018Z,11.83
2022-12-25T03:11:34.041Z,12.35
2022-12-25T03:14:27.450Z,13.07
2022-12-25T03:16:58.506Z,13.10
2022-12-25T03:20:11.456Z,13.23
2022-12-25T03:22:59.254Z,12.40
2022-12-25T03:25:47.362Z,13.32
2022-12-25T03:28:15.290Z,11.70
2022-12-25T03:31:17.572Z,12.32
2022-12-25T03:34:25.510Z,12.45
2022-12-25T03:37:11.455Z,11.60
2022-12-25T03:40:49.626Z,12.23
2022-12-25T03:43:51.408Z,13.95
2022-12-25T03:46:42.247Z,12.45
2022-12-25T03:49:52.774Z,13.80
2022-12-25T03:52:40.344Z,13.77
2022-12-25T03:55:31.772Z,14.30
2022-12-25T03:58:19.029Z,13.90
2022-12-25T04:01:05.651Z,12.88
2022-12-25T04:03:52.292Z,13.23
2022-12-25T04:06:39.284Z,12.20
2022-12-25T04:09:25.781Z,12.38
2022-12-25T04:12:12.735Z,12.32
2022-12-25T04:14:59.270Z,12.85
2022-12-25T04:18:00.121Z,13.10
2022-12-25T04:20:46.438Z,13.10
2022-12-25T04:23:32.742Z,14.10
2022-12-25T04:26:19.263Z,11.88
2022-12-25T04:29:06.319Z,13.85
2022-12-25T04:31:53.225Z,11.75
2022-12-25T04:34:40.191Z,11.60
2022-12-25T04:37:08.217Z,10.60
2022-12-25T04:39:36.372Z,11.32
2022-12-25T04:42:04.329Z,11.35
2022-12-25T04:44:32.392Z,11.50
2022-12-25T04:47:01.131Z,11.30
2022-12-25T04:49:31.874Z,11.50
2022-12-25T04:51:59.868Z,12.30
2022-12-25T04:54:28.067Z,11.50
2022-12-25T04:56:55.778Z,11.27
2022-12-25T04:59:24.022Z,11.80
2022-12-25T05:01:51.906Z,11.43
2022-12-25T05:04:20.086Z,11.90
2022-12-25T05:06:47.918Z,11.90
2022-12-25T05:09:16.281Z,12.32
2022-12-25T05:11:44.016Z,12.10
2022-12-25T05:14:12.319Z,11.88
2022-12-25T05:16:40.759Z,13.98
2022-12-25T05:19:09.814Z,14.20
2022-12-25T05:21:37.617Z,13.55
2022-12-25T05:24:08.140Z,14.23
2022-12-25T05:26:35.881Z,13.40
2022-12-25T05:29:04.077Z,13.68
2022-12-25T05:31:31.797Z,13.38
2022-12-25T05:34:00.101Z,12.48
2022-12-25T05:36:27.889Z,13.83
2022-12-25T05:38:56.174Z,13.68
2022-12-25T05:41:25.190Z,13.43
2022-12-25T05:43:56.579Z,13.13
2022-12-25T05:46:24.264Z,13.48
2022-12-25T05:48:52.500Z,14.47
2022-12-25T05:51:20.471Z,12.50
2022-12-25T05:53:49.102Z,13.27
2022-12-25T05:56:42.467Z,13.35
2022-12-25T05:59:10.697Z,12.98
2022-12-25T06:01:38.766Z,12.93
2022-12-25T06:04:12.436Z,13.85
2022-12-25T06:06:41.661Z,14.02
2022-12-25T06:09:12.054Z,13.48
2022-12-25T06:11:40.442Z,14.57
2022-12-25T06:14:12.687Z,14.73
2022-12-25T06:16:40.898Z,13.70
2022-12-25T06:19:09.284Z,15.82
2022-12-25T06:21:37.130Z,14.43
2022-12-25T06:24:05.832Z,14.60
2022-12-25T06:26:33.872Z,14.07
2022-12-25T06:29:02.358Z,14.43
2022-12-25T06:31:30.695Z,15.32
2022-12-25T06:33:58.899Z,15.30
2022-12-25T06:36:29.581Z,16.35
2022-12-25T06:39:01.601Z,15.53
2022-12-25T06:41:30.703Z,14.73
2022-12-25T06:44:01.415Z,14.88
2022-12-25T06:46:30.508Z,13.77
2022-12-25T06:48:59.919Z,14.38
2022-12-25T06:51:32.808Z,16.37
2022-12-25T06:54:05.394Z,16.05
2022-12-25T06:56:34.155Z,14.10
2022-12-25T06:59:05.075Z,14.00
2022-12-25T07:01:37.346Z,12.50
2022-12-25T07:04:08.684Z,13.30
2022-12-25T07:06:36.391Z,13.90
2022-12-25T07:09:04.742Z,13.50
2022-12-25T07:11:32.759Z,14.93
2022-12-25T07:14:01.081Z,14.27
2022-12-25T07:16:29.338Z,14.67
2022-12-25T07:19:00.694Z,14.68
2022-12-25T07:21:28.958Z,17.23
2022-12-25T07:23:57.328Z,19.00
2022-12-25T07:26:25.115Z,16.02
2022-12-25T07:28:53.706Z,14.60
2022-12-25T07:31:21.794Z,16.30
2022-12-25T07:33:54.344Z,14.50
2022-12-25T07:36:22.622Z,13.82
2022-12-25T07:38:51.046Z,16.98
2022-12-25T07:41:19.080Z,14.80
2022-12-25T07:43:52.181Z,18.80
2022-12-25T07:46:22.202Z,23.15
2022-12-25T07:48:50.439Z,22.00
2022-12-25T07:51:18.230Z,23.70
2022-12-25T07:53:46.586Z,21.30
2022-12-25T07:56:17.633Z,15.98
2022-12-25T07:58:46.691Z,14.65
2022-12-25T08:04:14.933Z,13.18
2022-12-25T08:06:42.878Z,13.50
2022-12-25T08:09:13.228Z,14.80
2022-12-25T08:15:12.667Z,13.40
2022-12-25T08:18:08.316Z,14.73
2022-12-25T08:20:36.471Z,18.33
2022-12-25T08:23:07.118Z,14.38
2022-12-25T08:25:35.588Z,14.40
2022-12-25T08:28:04.065Z,14.05
2022-12-25T08:30:32.515Z,15.48
2022-12-25T08:33:00.734Z,12.63
2022-12-25T08:35:28.538Z,11.93
2022-12-25T08:37:56.766Z,12.23
2022-12-25T08:40:25.003Z,12.77
2022-12-25T08:42:57.583Z,14.13
2022-12-25T08:45:28.521Z,13.87
2022-12-25T08:48:01.168Z,14.38
2022-12-25T08:50:29.019Z,14.75
2022-12-25T08:52:57.357Z,14.55
2022-12-25T08:55:25.340Z,14.60
2022-12-25T08:57:54.696Z,15.27
2022-12-25T09:00:22.572Z,14.05
2022-12-25T09:02:51.515Z,14.30
2022-12-25T09:05:19.457Z,13.95
2022-12-25T09:07:47.611Z,15.05
2022-12-25T09:10:15.576Z,17.10
2022-12-25T09:12:43.953Z,23.20
2022-12-25T09:15:11.931Z,14.90
2022-12-25T09:17:40.406Z,14.25
2022-12-25T09:20:23.086Z,34.33
2022-12-25T09:22:51.349Z,18.00
2022-12-25T09:25:19.344Z,12.88
2022-12-25T09:27:47.616Z,12.52
2022-12-25T09:30:25.493Z,15.63
2022-12-25T09:32:54.017Z,12.20
2022-12-25T09:35:22.117Z,11.77
2022-12-25T09:37:50.637Z,11.60
2022-12-25T09:43:21.640Z,10.93
2022-12-25T09:46:09.473Z,11.50
2022-12-25T09:48:44.355Z,10.10
2022-12-25T09:51:16.965Z,11.73
2022-12-25T09:54:15.065Z,11.40
2022-12-25T09:56:43.197Z,9.93
2022-12-25T09:59:39.272Z,9.55
2022-12-25T10:02:19.364Z,11.20
2022-12-25T10:05:13.357Z,10.95
2022-12-25T10:07:57.457Z,10.80
2022-12-25T10:10:50.036Z,14.18
2022-12-25T10:13:33.608Z,14.70
2022-12-25T10:19:12.059Z,51.07
2022-12-25T10:21:42.111Z,30.80
2022-12-25T10:24:32.704Z,20.70
2022-12-25T10:27:05.645Z,13.40
2022-12-25T10:29:36.155Z,12.75
2022-12-25T10:32:07.285Z,12.77
2022-12-25T10:34:36.840Z,12.75
2022-12-25T10:37:05.118Z,11.23
2022-12-25T10:39:33.327Z,10.25
2022-12-25T10:42:29.906Z,11.30
2022-12-25T10:45:03.655Z,12.00
2022-12-25T10:47:44.689Z,12.55
2022-12-25T10:50:20.894Z,16.95
2022-12-25T10:53:06.629Z,12.98
2022-12-25T10:55:37.047Z,18.83
2022-12-25T10:58:06.659Z,12.20
2022-12-25T11:00:34.835Z,11.20
2022-12-25T11:03:03.768Z,13.13
2022-12-25T11:05:34.402Z,28.65
2022-12-25T11:11:06.754Z,10.73
2022-12-25T11:13:48.912Z,9.43
2022-12-25T11:16:31.982Z,9.52
2022-12-25T11:19:00.844Z,10.05
2022-12-25T11:21:34.653Z,8.63
2022-12-25T11:24:05.466Z,7.73
2022-12-25T11:27:00.002Z,8.32
2022-12-25T11:29:46.978Z,8.13
2022-12-25T11:32:58.978Z,7.85
2022-12-25T11:35:32.633Z,6.80
2022-12-25T11:38:00.950Z,6.20
2022-12-25T11:40:54.536Z,6.80
2022-12-25T11:43:48.107Z,5.68
2022-12-25T11:46:31.228Z,4.60
2022-12-25T11:49:08.861Z,9.07
2022-12-25T11:51:41.878Z,6.97
2022-12-25T11:54:21.996Z,5.07
2022-12-25T11:56:51.019Z,4.35
2022-12-25T11:59:23.236Z,5.03
2022-12-25T12:01:59.245Z,3.67
2022-12-25T12:04:40.466Z,3.80
2022-12-25T12:07:22.663Z,3.60
2022-12-25T12:10:06.248Z,4.22
2022-12-25T12:12:54.702Z,3.90
2022-12-25T12:15:36.231Z,4.60
2022-12-25T12:18:22.696Z,4.27
2022-12-25T12:21:26.822Z,4.07
2022-12-25T12:24:07.507Z,3.83
2022-12-25T12:26:41.605Z,3.92
2022-12-25T12:29:30.137Z,4.85
2022-12-25T12:32:03.115Z,5.20
2022-12-25T12:34:52.404Z,4.07
2022-12-25T12:37:31.272Z,5.75
2022-12-25T12:40:00.620Z,4.60
2022-12-25T12:42:35.268Z,4.85
2022-12-25T12:45:17.274Z,3.47
2022-12-25T12:47:49.273Z,10.98
2022-12-25T12:50:26.730Z,6.57
2022-12-25T12:52:55.098Z,4.65
2022-12-25T12:55:31.736Z,4.00
2022-12-25T12:58:01.971Z,4.10
2022-12-25T13:00:48.971Z,7.13
2022-12-25T13:03:43.404Z,5.97
2022-12-25T13:06:39.624Z,5.47
2022-12-25T13:09:44.854Z,5.43
2022-12-25T13:12:15.761Z,6.00
2022-12-25T13:14:50.975Z,4.38
2022-12-25T13:17:25.637Z,5.70
2022-12-25T13:20:00.280Z,10.82
2022-12-25T13:22:35.170Z,6.75
2022-12-25T13:25:17.837Z,6.50
2022-12-25T13:27:46.376Z,6.90
2022-12-25T13:30:29.461Z,5.82
2022-12-25T13:33:01.393Z,6.25
2022-12-25T13:35:30.989Z,4.97
2022-12-25T13:37:59.516Z,13.60
2022-12-25T13:40:29.207Z,7.65
2022-12-25T13:43:00.501Z,10.60
2022-12-25T13:45:31.034Z,6.47
2022-12-25T13:48:16.380Z,8.13
2022-12-25T13:50:49.747Z,15.90
2022-12-25T13:56:29.909Z,8.90
2022-12-25T13:58:59.651Z,9.80
2022-12-25T14:01:29.051Z,5.45
2022-12-25T14:03:57.870Z,6.50
2022-12-25T14:10:04.628Z,10.63
2022-12-25T14:12:34.105Z,9.75
2022-12-25T14:15:03.899Z,7.32
2022-12-25T14:17:33.954Z,6.80
2022-12-25T14:20:08.026Z,7.45
2022-12-25T14:22:39.169Z,9.57
2022-12-25T14:25:15.736Z,10.80
2022-12-25T14:27:49.523Z,9.52
2022-12-25T14:30:18.761Z,8.70
2022-12-25T14:33:00.155Z,7.22
2022-12-25T14:35:28.559Z,6.90
2022-12-25T14:38:00.933Z,7.00
2022-12-25T14:40:33.001Z,7.35
2022-12-25T14:43:03.847Z,6.77
2022-12-25T14:45:33.511Z,6.40
2022-12-25T14:48:21.250Z,8.60
2022-12-25T14:51:04.499Z,8.55
2022-12-25T14:53:41.375Z,7.13
2022-12-25T14:56:10.770Z,6.70
2022-12-25T14:58:47.406Z,6.57
2022-12-25T15:01:37.270Z,7.20
2022-12-25T15:04:17.282Z,6.57
2022-12-25T15:07:00.312Z,6.82
2022-12-25T15:09:30.349Z,7.03
2022-12-25T15:11:58.341Z,7.43
2022-12-25T15:14:27.581Z,6.47
2022-12-25T15:17:02.222Z,7.32
2022-12-25T15:19:37.659Z,8.57
2022-12-25T15:22:06.749Z,9.37
2022-12-25T15:24:34.831Z,11.60
2022-12-25T15:27:02.784Z,11.32
2022-12-25T15:30:07.778Z,9.05
2022-12-25T15:32:24.086Z,8.38
2022-12-25T15:34:53.459Z,7.10
2022-12-25T15:37:21.531Z,7.50
2022-12-25T15:39:50.372Z,7.30
2022-12-25T15:42:23.158Z,14.20
2022-12-25T15:44:53.530Z,21.40
2022-12-25T15:47:21.738Z,21.77
2022-12-25T15:49:50.500Z,19.77
2022-12-25T15:52:18.921Z,21.77
2022-12-25T15:54:47.292Z,18.25
2022-12-25T15:57:22.888Z,17.25
2022-12-25T15:59:51.598Z,16.53
2022-12-25T16:02:21.300Z,15.93
2022-12-25T16:04:51.580Z,14.38
2022-12-25T16:07:23.441Z,13.98
2022-12-25T16:09:52.671Z,13.73
2022-12-25T16:12:20.684Z,14.47
2022-12-25T16:14:49.072Z,18.40
2022-12-25T16:17:17.227Z,22.50
2022-12-25T16:19:45.273Z,41.00
2022-12-25T16:22:14.611Z,24.00
2022-12-25T16:24:43.102Z,24.73
2022-12-25T16:27:11.192Z,22.83
2022-12-25T16:29:40.032Z,30.15
2022-12-25T16:32:10.157Z,33.55
2022-12-25T16:34:38.496Z,34.05
2022-12-25T16:37:07.021Z,35.30
2022-12-25T16:39:35.240Z,33.92
2022-12-25T16:42:03.028Z,25.50
2022-12-25T16:44:31.368Z,20.05
2022-12-25T16:46:59.488Z,14.90
2022-12-25T16:49:27.902Z,13.37
2022-12-25T16:51:55.956Z,12.30
2022-12-25T16:54:24.220Z,12.43
2022-12-25T16:56:52.626Z,16.90
2022-12-25T16:59:21.238Z,17.25
2022-12-25T17:01:49.415Z,15.50
2022-12-25T17:04:18.256Z,13.35
2022-12-25T17:06:46.150Z,12.75
2022-12-25T17:09:14.462Z,14.32
2022-12-25T17:11:42.236Z,15.95
2022-12-25T17:14:11.503Z,17.60
2022-12-25T17:16:41.070Z,19.48
2022-12-25T17:19:19.267Z,25.83
2022-12-25T17:21:48.085Z,24.00
2022-12-25T17:24:17.290Z,23.15
2022-12-25T17:26:46.123Z,17.37
2022-12-25T17:29:21.421Z,15.82
2022-12-25T17:31:51.230Z,14.82
2022-12-25T17:34:19.936Z,15.90
2022-12-25T17:36:48.495Z,23.77
2022-12-25T17:39:17.537Z,31.43
2022-12-25T17:41:45.874Z,39.35
2022-12-25T17:44:14.186Z,23.83
2022-12-25T17:46:42.635Z,18.27
2022-12-25T17:49:17.237Z,33.53
2022-12-25T17:51:46.531Z,43.13
2022-12-25T17:54:15.475Z,30.70
2022-12-25T17:56:43.844Z,17.00
2022-12-25T17:59:19.016Z,15.60
2022-12-25T18:01:48.661Z,16.00
2022-12-25T18:04:17.296Z,17.73
2022-12-25T18:06:45.671Z,17.25
2022-12-25T18:09:14.300Z,16.88
2022-12-25T18:11:43.943Z,14.48
2022-12-25T18:14:16.061Z,14.73
2022-12-25T18:16:45.912Z,13.97
2022-12-25T18:19:18.923Z,22.08
2022-12-25T18:21:46.952Z,29.40
2022-12-25T18:24:15.286Z,20.15
2022-12-25T18:26:44.012Z,13.05
2022-12-25T18:29:12.160Z,14.90
2022-12-25T18:31:44.270Z,16.30
2022-12-25T18:34:12.876Z,16.65
2022-12-25T18:36:40.913Z,14.52
2022-12-25T18:39:09.675Z,12.95
2022-12-25T18:41:57.786Z,13.70
2022-12-25T18:44:26.489Z,14.05
2022-12-25T18:46:54.468Z,15.68
2022-12-25T18:49:23.206Z,15.05
2022-12-25T18:51:51.184Z,12.93
2022-12-25T18:54:23.066Z,12.97
2022-12-25T18:56:53.555Z,15.40
2022-12-25T18:59:23.802Z,23.00
2022-12-25T19:01:51.741Z,31.27
2022-12-25T19:04:41.494Z,34.42
2022-12-25T19:07:13.113Z,32.10
2022-12-25T19:09:41.847Z,19.30
2022-12-25T19:12:09.558Z,17.33
2022-12-25T19:14:47.389Z,17.17
2022-12-25T19:17:18.694Z,17.02
2022-12-25T19:19:48.075Z,15.87
2022-12-25T19:22:16.511Z,19.77
2022-12-25T19:24:44.952Z,18.23
2022-12-25T19:27:13.338Z,20.27
2022-12-25T19:29:42.755Z,34.95
2022-12-25T19:32:10.840Z,27.30
2022-12-25T19:34:40.722Z,19.63
2022-12-25T19:37:09.952Z,15.95
2022-12-25T19:39:42.516Z,19.05
2022-12-25T19:42:36.831Z,22.75
2022-12-25T19:45:05.950Z,17.67
2022-12-25T19:47:33.823Z,20.63
2022-12-25T19:50:03.381Z,21.80
2022-12-25T19:52:31.543Z,20.55
2022-12-25T19:54:59.933Z,17.05
2022-12-25T19:57:27.743Z,14.77
2022-12-25T19:59:56.082Z,13.48
2022-12-25T20:02:24.776Z,12.60
2022-12-25T20:04:53.334Z,15.23
2022-12-25T20:07:21.258Z,16.35
2022-12-25T20:09:49.712Z,18.60
2022-12-25T20:12:17.548Z,15.95
2022-12-25T20:14:46.052Z,14.75
2022-12-25T20:17:16.156Z,16.88
2022-12-25T20:19:44.735Z,14.98
2022-12-25T20:22:12.707Z,16.03
2022-12-25T20:24:42.745Z,32.63
2022-12-25T20:27:10.489Z,19.23
2022-12-25T20:29:41.933Z,15.45
2022-12-25T20:32:11.319Z,17.65
2022-12-25T20:34:39.310Z,16.23
2022-12-25T20:37:07.509Z,15.63
2022-12-25T20:39:35.687Z,15.60
2022-12-25T20:42:08.310Z,18.35
2022-12-25T20:44:36.428Z,20.10
2022-12-25T20:47:04.298Z,19.00
2022-12-25T20:49:35.106Z,17.35
2022-12-25T20:52:05.501Z,15.73
2022-12-25T20:54:34.299Z,13.85
2022-12-25T20:57:02.587Z,21.80
2022-12-25T20:59:36.909Z,43.43
2022-12-25T21:02:06.536Z,38.85
2022-12-25T21:04:34.801Z,37.80
2022-12-25T21:07:03.206Z,23.17
2022-12-25T21:09:32.253Z,21.33
2022-12-25T21:11:59.975Z,20.00
2022-12-25T21:14:29.934Z,33.30
2022-12-25T21:16:57.961Z,30.42
2022-12-25T21:19:26.084Z,25.42
2022-12-25T21:21:53.895Z,24.08
2022-12-25T21:24:22.276Z,26.10
2022-12-25T21:26:50.274Z,25.42
2022-12-25T21:29:21.761Z,25.60
2022-12-25T21:32:28.793Z,26.05
2022-12-25T21:34:57.104Z,25.92
2022-12-25T21:37:25.102Z,27.57
2022-12-25T21:39:54.075Z,32.83
2022-12-25T21:42:21.859Z,30.50
2022-12-25T21:44:50.274Z,31.70
2022-12-25T21:47:18.052Z,29.60
2022-12-25T21:50:05.392Z,27.83
2022-12-25T21:52:33.271Z,33.20
2022-12-25T21:55:02.347Z,21.13
2022-12-25T21:57:30.385Z,21.85
2022-12-25T21:59:58.628Z,32.22
2022-12-25T22:02:26.868Z,35.37
2022-12-25T22:04:56.826Z,35.83
2022-12-25T22:07:24.618Z,33.55
2022-12-25T22:09:52.737Z,36.67
2022-12-25T22:12:40.365Z,36.65
2022-12-25T22:15:10.587Z,32.07
2022-12-25T22:18:01.032Z,31.77
2022-12-25T22:20:35.064Z,30.35
2022-12-25T22:23:03.429Z,25.83
2022-12-25T22:25:31.592Z,23.17
2022-12-25T22:28:00.336Z,23.87
2022-12-25T22:30:29.582Z,25.00
2022-12-25T22:32:58.032Z,28.50
2022-12-25T22:35:26.336Z,25.48
2022-12-25T22:37:54.431Z,23.92
2022-12-25T22:40:22.463Z,29.77
2022-12-25T22:42:53.714Z,32.88
2022-12-25T22:45:21.879Z,36.25
2022-12-25T22:47:49.857Z,34.83
2022-12-25T22:50:19.161Z,32.90
2022-12-25T22:52:47.586Z,30.57
2022-12-25T22:55:19.243Z,34.75
2022-12-25T22:57:47.418Z,31.33
2022-12-25T23:00:15.817Z,24.33
2022-12-25T23:02:44.228Z,25.95
2022-12-25T23:05:12.587Z,27.20
2022-12-25T23:07:42.436Z,30.90
2022-12-25T23:10:11.689Z,27.92
2022-12-25T23:12:58.726Z,23.05
2022-12-25T23:15:28.467Z,22.25
2022-12-25T23:18:14.426Z,23.57
2022-12-25T23:21:01.480Z,28.25
2022-12-25T23:23:47.724Z,25.90
2022-12-25T23:26:17.550Z,28.20
2022-12-25T23:29:04.037Z,28.92
2022-12-25T23:31:36.287Z,25.20
2022-12-25T23:34:05.356Z,13.90
2022-12-25T23:36:34.792Z,11.95
2022-12-25T23:39:09.673Z,12.60
2022-12-25T23:41:43.410Z,13.70
2022-12-25T23:44:13.289Z,12.30
2022-12-25T23:46:53.385Z,12.32
2022-12-25T23:49:23.099Z,12.63
2022-12-25T23:51:52.161Z,12.43
2022-12-25T23:54:23.481Z,11.80
2022-12-25T23:56:52.862Z,11.43
2022-12-25T23:59:21.008Z,11.65
